Time;durP1;ratioP1;P1;durP2;ratioP2;P2;SDS_P1;SDS_P2;PMS_P1;PMS_P2;Temp;Humidity;BMP_temperature;BMP_pressure;BME280_temperature;BME280_humidity;BME280_pressure;Samples;Min_cycle;Max_cycle;Signal;HPM_P1;HPM_P2
2022/01/25 00:31:13;;;;;;;62.78;35.70;;;;;;;2.93;77.62;102736.44;5034242;28;20065;-62
2022/01/25 00:33:38;;;;;;;64.38;35.63;;;;;;;2.85;78.27;102735.84;5035392;28;20053;-63
2022/01/25 00:36:08;;;;;;;59.67;34.50;;;;;;;3.13;77.59;102736.38;5034203;28;20058;-60
2022/01/25 00:38:36;;;;;;;57.40;32.65;;;;;;;2.61;77.74;102734.66;5028931;28;20511;-61
2022/01/25 00:41:03;;;;;;;62.47;33.38;;;;;;;2.43;78.33;102733.59;5015540;28;20408;-64
2022/01/25 00:43:31;;;;;;;59.63;33.03;;;;;;;2.78;77.84;102729.56;5015532;28;20050;-61
2022/01/25 00:46:04;;;;;;;55.47;31.55;;;;;;;2.69;77.92;102739.00;5015302;28;20205;-59
2022/01/25 00:48:44;;;;;;;55.88;30.58;;;;;;;2.65;77.70;102735.88;5015368;28;20050;-61
2022/01/25 00:54:27;;;;;;;56.20;29.65;;;;;;;2.41;77.04;102733.81;5018732;28;20050;-59
2022/01/25 00:56:55;;;;;;;53.30;30.35;;;;;;;2.57;76.83;102732.53;5034703;28;20046;-60
2022/01/25 00:59:28;;;;;;;60.40;29.60;;;;;;;2.57;76.60;102732.53;5025041;28;20058;-57
2022/01/25 01:01:59;;;;;;;51.45;30.00;;;;;;;2.66;76.30;102732.13;5013411;28;20081;-62
2022/01/25 01:04:27;;;;;;;50.15;28.50;;;;;;;2.42;76.47;102727.34;5014915;28;20064;-62
2022/01/25 01:06:55;;;;;;;54.67;30.38;;;;;;;2.10;77.96;102729.03;5042878;28;20049;-61
2022/01/25 01:09:23;;;;;;;49.22;29.10;;;;;;;1.94;78.25;102734.88;5054767;28;20645;-60
2022/01/25 01:11:59;;;;;;;53.20;28.50;;;;;;;1.84;78.39;102733.59;5054749;28;20064;-58
2022/01/25 01:30:38;;;;;;;52.28;27.70;;;;;;;1.37;80.55;102744.53;5014866;28;20053;-59
2022/01/25 01:43:45;;;;;;;53.90;28.65;;;;;;;1.66;79.97;102747.75;5017545;28;20058;-60
2022/01/25 01:48:55;;;;;;;50.88;27.08;;;;;;;1.54;79.87;102752.13;5018686;28;20064;-59
2022/01/25 01:53:54;;;;;;;57.13;27.10;;;;;;;1.31;81.18;102753.50;5017805;28;20058;-61
2022/01/25 01:56:22;;;;;;;53.73;27.83;;;;;;;1.41;81.59;102746.66;5018638;28;20188;-59
2022/01/25 01:58:51;;;;;;;56.22;28.20;;;;;;;1.63;80.81;102747.34;5017176;28;20053;-61
2022/01/25 02:01:24;;;;;;;56.60;26.40;;;;;;;1.66;80.43;102752.34;5018242;28;20066;-61
2022/01/25 02:03:54;;;;;;;48.35;26.88;;;;;;;1.50;80.85;102760.91;5018525;28;20061;-60
2022/01/25 02:06:22;;;;;;;53.40;28.52;;;;;;;1.63;80.39;102759.03;5033889;28;20049;-60
2022/01/25 02:08:49;;;;;;;49.42;27.55;;;;;;;1.45;80.96;102757.94;5034321;28;20056;-61
2022/01/25 02:11:17;;;;;;;49.55;27.20;;;;;;;1.45;81.02;102756.06;5038268;28;20537;-61
2022/01/25 02:13:46;;;;;;;48.50;26.90;;;;;;;1.25;81.22;102751.59;5020554;28;20056;-60
2022/01/25 02:16:39;;;;;;;50.65;27.25;;;;;;;1.17;81.60;102751.78;5036407;28;20053;-59
2022/01/25 02:24:37;;;;;;;45.08;25.58;;;;;;;1.78;79.64;102762.41;5037761;28;20053;-60
2022/01/25 02:27:05;;;;;;;46.20;25.35;;;;;;;1.84;78.79;102761.59;5037668;28;20052;-59
2022/01/25 02:29:32;;;;;;;44.20;24.70;;;;;;;1.70;79.09;102754.47;5036752;28;20049;-58
2022/01/25 02:32:00;;;;;;;41.50;22.98;;;;;;;1.55;79.13;102752.97;5020444;28;20054;-60
2022/01/25 02:34:27;;;;;;;45.20;24.35;;;;;;;1.80;78.24;102752.19;5017876;28;20057;-61
2022/01/25 02:37:05;;;;;;;41.42;23.30;;;;;;;1.73;78.51;102753.19;5017743;28;20057;-58
2022/01/25 02:39:33;;;;;;;41.75;23.27;;;;;;;1.53;78.49;102761.31;5032478;28;20069;-61
2022/01/25 02:42:00;;;;;;;40.10;22.50;;;;;;;1.85;78.32;102760.56;5032713;28;20065;-59
2022/01/25 02:44:29;;;;;;;53.03;29.23;;;;;;;1.96;77.81;102767.25;5016612;28;20074;-58
2022/01/25 02:49:33;;;;;;;52.83;30.67;;;;;;;1.98;77.59;102757.03;5032051;28;20057;-61
2022/01/25 02:52:03;;;;;;;49.78;28.50;;;;;;;1.99;76.87;102759.53;5017796;28;20056;-61
2022/01/25 02:54:31;;;;;;;37.47;22.88;;;;;;;2.02;76.40;102759.09;5017606;28;20054;-62
2022/01/25 02:56:58;;;;;;;38.53;21.73;;;;;;;1.99;76.95;102753.25;5017794;28;20053;-61
2022/01/25 02:59:26;;;;;;;35.75;21.67;;;;;;;2.16;76.33;102751.81;5032659;28;20065;-61
2022/01/25 03:01:53;;;;;;;36.25;20.80;;;;;;;1.80;76.89;102752.19;5017409;28;20069;-65
2022/01/25 03:04:23;;;;;;;39.17;21.52;;;;;;;1.88;77.28;102754.69;5020688;28;20049;-62
2022/01/25 03:06:51;;;;;;;36.15;21.60;;;;;;;1.86;77.38;102756.81;5045489;28;20491;-61
2022/01/25 03:09:19;;;;;;;38.38;20.98;;;;;;;2.00;77.11;102761.22;5055856;28;20053;-61
2022/01/25 03:11:49;;;;;;;37.95;22.75;;;;;;;1.87;77.38;102760.34;5057120;28;20479;-62
2022/01/25 03:14:19;;;;;;;37.58;21.23;;;;;;;1.80;77.64;102768.47;5049484;28;20061;-61
2022/01/25 03:17:06;;;;;;;;;;;;;;;1.84;77.44;102761.59;5035247;28;20042;-62
2022/01/25 03:22:15;;;;;;;35.72;20.45;;;;;;;1.91;77.52;102756.19;5028724;28;20057;-62
2022/01/25 03:24:42;;;;;;;35.90;21.33;;;;;;;2.04;77.18;102754.31;5018318;28;20153;-61
2022/01/25 03:27:09;;;;;;;34.28;19.95;;;;;;;2.02;77.13;102748.22;5036840;28;20049;-61
2022/01/25 03:29:37;;;;;;;34.70;20.40;;;;;;;2.13;76.87;102749.50;5036936;28;20049;-61
2022/01/25 03:32:05;;;;;;;33.15;19.58;;;;;;;2.13;76.44;102747.63;5036856;28;20053;-62
2022/01/25 03:34:32;;;;;;;33.97;19.73;;;;;;;1.80;76.88;102746.75;5019180;28;20057;-61
2022/01/25 03:37:00;;;;;;;36.63;20.23;;;;;;;2.08;76.70;102739.25;5035571;28;20049;-61
2022/01/25 03:39:27;;;;;;;33.92;19.83;;;;;;;2.02;76.56;102734.66;5022270;28;20054;-61
2022/01/25 03:41:55;;;;;;;34.08;19.48;;;;;;;2.03;76.83;102735.50;5016777;28;20595;-62
2022/01/25 03:44:22;;;;;;;38.00;20.85;;;;;;;1.81;77.28;102729.44;5015330;28;20065;-61
2022/01/25 03:52:06;;;;;;;35.13;20.25;;;;;;;1.68;77.57;102726.66;5015100;28;20049;-61
2022/01/25 03:54:34;;;;;;;35.78;20.58;;;;;;;1.53;77.83;102727.88;5015294;28;20054;-62
2022/01/25 03:57:02;;;;;;;37.75;20.58;;;;;;;1.51;78.75;102719.94;5020002;28;20049;-62
2022/01/25 03:59:30;;;;;;;37.40;21.20;;;;;;;1.65;78.19;102728.97;5016745;28;20060;-61
2022/01/25 04:01:57;;;;;;;36.13;20.15;;;;;;;1.86;78.03;102726.91;5007114;28;20056;-61
2022/01/25 04:04:26;;;;;;;35.35;21.02;;;;;;;1.89;77.60;102733.81;5034846;28;20061;-62
2022/01/25 04:06:54;;;;;;;35.42;20.33;;;;;;;2.04;77.35;102724.41;5035997;28;20056;-62
2022/01/25 04:09:21;;;;;;;44.38;23.00;;;;;;;1.86;77.63;102728.78;5035962;28;20065;-61
2022/01/25 04:11:49;;;;;;;49.13;25.08;;;;;;;1.88;78.50;102738.41;5035815;28;20057;-61
2022/01/25 04:14:16;;;;;;;52.55;27.60;;;;;;;1.84;79.15;102741.75;5033240;28;20045;-62
2022/01/25 04:17:00;;;;;;;62.00;29.63;;;;;;;1.71;79.87;102731.69;5015284;28;20057;-61
2022/01/25 04:19:46;;;;;;;58.72;28.23;;;;;;;1.91;80.21;102742.59;5016109;28;20064;-61
2022/01/25 04:25:03;;;;;;;65.20;33.03;;;;;;;1.46;83.14;102744.16;5016010;28;20056;-63
2022/01/25 04:27:31;;;;;;;64.03;31.92;;;;;;;1.69;82.34;102741.09;5014396;28;20046;-61
2022/01/25 04:29:59;;;;;;;60.90;31.80;;;;;;;1.84;82.37;102742.59;5014327;28;20429;-61
2022/01/25 04:32:46;;;;;;;64.78;32.67;;;;;;;2.01;82.17;102743.84;5014576;28;20064;-61
2022/01/25 05:02:20;;;;;;;62.28;32.30;;;;;;;1.66;83.54;102755.06;5025274;28;20060;-62
2022/01/25 05:04:54;;;;;;;68.72;33.88;;;;;;;1.63;83.79;102761.75;5035079;28;20072;-62
2022/01/25 05:07:44;;;;;;;71.78;33.95;;;;;;;1.43;84.16;102758.13;5052720;28;20049;-61
2022/01/25 05:10:10;;;;;;;70.53;34.90;;;;;;;1.64;84.20;102759.91;5053634;28;20052;-62
2022/01/25 05:15:38;;;;;;;69.57;33.92;;;;;;;1.78;83.41;102756.16;5054611;28;20052;-62
2022/01/25 05:18:16;;;;;;;73.40;35.15;;;;;;;1.68;83.92;102763.84;5055204;28;20060;-62
2022/01/25 05:23:30;;;;;;;66.00;31.35;;;;;;;1.68;83.79;102753.84;5054470;28;20072;-62
2022/01/25 05:25:57;;;;;;;67.38;34.00;;;;;;;1.88;83.59;102757.41;5054696;28;20049;-61
2022/01/25 05:28:25;;;;;;;64.32;32.33;;;;;;;2.00;82.65;102763.09;5054403;28;20045;-61
2022/01/25 05:30:52;;;;;;;67.32;33.45;;;;;;;1.95;83.21;102754.72;5054574;28;20475;-62
2022/01/25 05:33:19;;;;;;;63.25;32.50;;;;;;;2.04;83.21;102765.19;5054555;28;20400;-62
2022/01/25 05:35:47;;;;;;;71.88;33.70;;;;;;;1.98;82.52;102766.03;5036855;28;20053;-61
2022/01/25 05:38:14;;;;;;;73.35;35.60;;;;;;;1.83;84.45;102756.38;5054644;28;20399;-61
2022/01/25 05:48:31;;;;;;;69.93;35.95;;;;;;;2.30;83.74;102742.63;5054518;28;20053;-61
2022/01/25 05:50:58;;;;;;;78.82;36.95;;;;;;;2.17;83.62;102753.47;5054594;28;20055;-62
2022/01/25 05:53:26;;;;;;;75.88;36.45;;;;;;;2.01;84.67;102762.88;5054510;28;20061;-63
2022/01/25 05:55:53;;;;;;;77.72;37.50;;;;;;;2.12;84.86;102754.13;5054551;28;20053;-61
2022/01/25 05:58:21;;;;;;;77.03;36.00;;;;;;;2.16;84.57;102759.97;5054536;28;20056;-62
2022/01/25 06:00:49;;;;;;;81.57;38.85;;;;;;;2.17;84.20;102758.91;5054304;28;20399;-61
2022/01/25 06:03:16;;;;;;;74.30;36.10;;;;;;;2.37;83.90;102758.94;5034584;28;20056;-62
2022/01/25 06:05:44;;;;;;;70.65;36.10;;;;;;;2.19;83.44;102763.13;5034570;28;20068;-62
2022/01/25 06:08:12;;;;;;;75.38;34.75;;;;;;;2.13;83.59;102763.09;5033345;28;20065;-61
2022/01/25 06:10:40;;;;;;;69.30;34.33;;;;;;;2.13;84.17;102761.22;5034598;28;20056;-62
2022/01/25 06:13:07;;;;;;;75.15;35.35;;;;;;;2.10;84.33;102766.22;5034373;28;20049;-61
2022/01/25 06:15:35;;;;;;;73.97;35.95;;;;;;;2.13;84.05;102755.78;5027451;28;20054;-61
2022/01/25 06:18:03;;;;;;;72.07;35.25;;;;;;;2.19;83.97;102765.00;5033946;28;20488;-61
2022/01/25 06:20:30;;;;;;;77.82;35.47;;;;;;;2.16;83.75;102763.50;5038079;28;20049;-62
2022/01/25 06:22:58;;;;;;;72.80;34.67;;;;;;;2.20;83.73;102762.06;5035995;28;20049;-62
2022/01/25 06:25:25;;;;;;;73.65;35.53;;;;;;;2.02;84.29;102764.53;5024301;28;20053;-63
2022/01/25 06:27:52;;;;;;;81.00;38.38;;;;;;;1.89;84.93;102760.97;5036645;28;20053;-60
2022/01/25 06:30:21;;;;;;;78.30;38.70;;;;;;;2.05;84.85;102758.72;5036482;28;20056;-64
2022/01/25 06:32:48;;;;;;;80.10;37.25;;;;;;;2.07;84.59;102762.06;5036590;28;20058;-64
2022/01/25 06:35:16;;;;;;;76.20;36.63;;;;;;;2.02;84.88;102772.69;5031311;28;20056;-62
2022/01/25 06:37:44;;;;;;;80.70;38.25;;;;;;;2.11;84.69;102776.91;5036393;28;20058;-62
2022/01/25 06:40:12;;;;;;;75.00;36.83;;;;;;;2.11;85.20;102770.63;5038323;28;20049;-62
2022/01/25 06:42:39;;;;;;;77.00;38.10;;;;;;;2.08;84.93;102771.03;5037387;28;20060;-62
2022/01/25 06:45:13;;;;;;;77.28;37.92;;;;;;;2.01;84.85;102762.03;5037277;28;20046;-61
2022/01/25 06:47:41;;;;;;;82.53;39.20;;;;;;;1.93;85.46;102759.53;5037520;28;20052;-62
2022/01/25 06:50:09;;;;;;;81.32;39.13;;;;;;;1.93;85.67;102759.53;5037377;28;20038;-61
2022/01/25 06:52:38;;;;;;;79.88;38.70;;;;;;;2.01;85.71;102760.16;5037092;28;20056;-61
2022/01/25 06:55:07;;;;;;;80.05;38.97;;;;;;;1.99;86.22;102767.69;5037256;28;20048;-62
2022/01/25 06:57:35;;;;;;;76.53;38.50;;;;;;;1.76;86.17;102750.09;5031326;28;20604;-61
2022/01/25 07:00:06;;;;;;;91.07;45.80;;;;;;;1.86;86.30;102754.09;5035643;28;20056;-61
2022/01/25 07:02:34;;;;;;;82.75;38.35;;;;;;;1.87;86.68;102753.03;5033935;28;20492;-61
2022/01/25 07:05:02;;;;;;;88.53;39.53;;;;;;;1.96;86.48;102759.94;5024286;28;20054;-61
2022/01/25 07:07:30;;;;;;;81.00;38.50;;;;;;;1.98;86.37;102762.47;5043864;28;20148;-62
2022/01/25 07:09:57;;;;;;;79.63;37.70;;;;;;;1.81;86.50;102764.75;5037042;28;20053;-61
2022/01/25 07:12:24;;;;;;;77.75;36.10;;;;;;;1.76;87.23;102772.66;5017129;28;20045;-62
2022/01/25 07:14:52;;;;;;;77.90;37.65;;;;;;;1.86;87.72;102766.84;5032952;28;20058;-62
2022/01/25 07:17:19;;;;;;;73.43;36.22;;;;;;;2.06;86.33;102775.84;5021745;28;20050;-64
2022/01/25 07:19:48;;;;;;;76.35;35.75;;;;;;;2.10;85.68;102764.34;5024960;28;20038;-64
2022/01/25 07:22:15;;;;;;;71.95;35.00;;;;;;;1.75;86.21;102775.56;5019620;28;20053;-61
2022/01/25 07:24:42;;;;;;;72.13;35.20;;;;;;;1.86;85.92;102778.53;5022859;28;20057;-62
2022/01/25 07:27:12;;;;;;;76.93;36.28;;;;;;;1.92;86.52;102771.41;5020800;28;20066;-62
2022/01/25 07:29:39;;;;;;;75.13;36.10;;;;;;;1.86;86.11;102781.25;5018863;28;20041;-63
2022/01/25 07:32:06;;;;;;;73.03;34.10;;;;;;;2.44;85.98;102779.63;5019960;28;20053;-57
2022/01/25 07:34:39;;;;;;;74.13;35.53;;;;;;;2.82;87.33;102771.66;5032465;28;20405;-58
2022/01/25 07:37:16;;;;;;;70.78;33.80;;;;;;;2.98;84.82;102782.09;5027251;28;20061;-59
2022/01/25 07:39:45;;;;;;;70.93;33.35;;;;;;;3.25;83.02;102778.22;5035561;28;20045;-61
2022/01/25 07:42:12;;;;;;;66.57;32.90;;;;;;;3.25;81.27;102787.22;5026702;28;20064;-62
2022/01/25 07:44:54;;;;;;;65.15;31.92;;;;;;;3.60;80.33;102789.59;5030807;28;20069;-57
2022/01/25 07:47:21;;;;;;;79.35;40.58;;;;;;;3.25;79.36;102792.69;5031743;28;20061;-62
2022/01/25 07:49:55;;;;;;;68.10;33.08;;;;;;;2.50;81.15;102795.13;5036076;28;20511;-62
2022/01/25 07:52:25;;;;;;;71.35;33.88;;;;;;;2.59;81.37;102796.56;5032832;28;20053;-62
2022/01/25 07:54:52;;;;;;;69.47;35.65;;;;;;;2.62;81.61;102795.31;5027564;28;20057;-61
2022/01/25 07:57:19;;;;;;;67.50;32.88;;;;;;;2.22;82.53;102808.06;5017227;28;20163;-61
2022/01/25 07:59:47;;;;;;;63.33;34.28;;;;;;;2.22;83.07;102806.19;5018763;28;20483;-61
2022/01/25 08:02:16;;;;;;;64.80;33.10;;;;;;;2.01;83.82;102810.94;5024295;28;20054;-62
2022/01/25 08:04:50;;;;;;;69.30;33.05;;;;;;;1.81;84.86;102805.50;5040687;28;20064;-62
2022/01/25 08:07:34;;;;;;;69.90;33.35;;;;;;;1.79;85.11;102809.44;5020462;28;20049;-61
2022/01/25 08:10:22;;;;;;;66.13;33.03;;;;;;;1.92;85.34;102812.19;4981300;28;20053;-62
2022/01/25 08:12:59;;;;;;;67.05;33.95;;;;;;;1.83;85.54;102816.16;4992647;28;20066;-62
2022/01/25 08:15:47;;;;;;;68.22;32.20;;;;;;;2.10;84.97;102817.88;4958005;28;20158;-67
2022/01/25 08:18:20;;;;;;;75.45;36.08;;;;;;;2.09;84.75;102819.75;4977932;28;20138;-61
2022/01/25 08:20:55;;;;;;;73.78;36.50;;;;;;;1.93;85.42;102827.47;4983422;28;20050;-61
2022/01/25 08:23:58;;;;;;;65.10;30.73;;;;;;;2.04;85.17;102826.88;4962229;28;20058;-61
2022/01/25 08:26:42;;;;;;;62.60;31.15;;;;;;;2.20;84.80;102823.75;4923468;29;20066;-61
2022/01/25 08:29:30;;;;;;;62.13;30.13;;;;;;;2.29;83.70;102827.94;4900175;29;20055;-62
2022/01/25 08:32:15;;;;;;;57.20;30.25;;;;;;;2.17;83.32;102819.56;4931388;29;20040;-62
2022/01/25 08:34:59;;;;;;;57.78;30.13;;;;;;;2.20;83.21;102821.88;4897157;29;20064;-62
2022/01/25 08:37:41;;;;;;;58.28;28.25;;;;;;;1.97;83.29;102823.31;4896405;29;20493;-62
2022/01/25 08:40:38;;;;;;;55.22;27.88;;;;;;;2.13;82.88;102821.03;4868138;29;20069;-61
2022/01/25 08:43:20;;;;;;;53.10;27.20;;;;;;;2.05;82.43;102817.66;4871987;29;20048;-62
2022/01/25 08:45:50;;;;;;;61.15;33.53;;;;;;;2.16;82.95;102823.31;4897104;29;20528;-61
2022/01/25 08:48:32;;;;;;;54.78;28.40;;;;;;;1.91;82.96;102826.81;4931704;29;20087;-62
2022/01/25 08:51:07;;;;;;;57.20;28.48;;;;;;;1.82;83.51;102818.03;4945867;28;20063;-61
2022/01/25 08:53:59;;;;;;;55.58;28.30;;;;;;;2.06;83.56;102812.00;4954315;29;20082;-61
2022/01/25 08:56:43;;;;;;;55.33;28.70;;;;;;;1.93;84.06;102812.00;4937384;29;20059;-61
2022/01/25 08:59:25;;;;;;;55.65;28.65;;;;;;;2.28;83.32;102818.94;4951435;28;20055;-63
2022/01/25 09:01:52;;;;;;;70.78;30.83;;;;;;;2.33;82.80;102820.19;4953717;29;20059;-61
2022/01/25 09:04:20;;;;;;;58.78;28.88;;;;;;;2.13;83.21;102818.31;4954319;29;20058;-61
2022/01/25 09:06:48;;;;;;;63.83;30.13;;;;;;;2.15;83.12;102832.53;5002799;28;20073;-62
2022/01/25 09:09:15;;;;;;;60.42;29.85;;;;;;;2.09;83.71;102833.34;5012962;28;20053;-61
2022/01/25 09:11:42;;;;;;;69.57;29.63;;;;;;;2.13;83.70;102828.31;5032392;28;20416;-61
2022/01/25 09:14:10;;;;;;;58.75;29.25;;;;;;;2.16;83.49;102833.38;5012766;28;20050;-62
2022/01/25 09:16:38;;;;;;;61.38;29.55;;;;;;;2.17;83.68;102833.16;4991685;28;20054;-61
2022/01/25 09:19:06;;;;;;;69.07;32.55;;;;;;;2.25;83.19;102832.94;4993324;28;20069;-61
2022/01/25 09:21:35;;;;;;;71.57;35.40;;;;;;;2.16;83.56;102828.75;5010787;28;20053;-61
2022/01/25 09:24:03;;;;;;;62.42;29.48;;;;;;;1.93;84.19;102836.47;5010666;28;20061;-62
2022/01/25 09:26:30;;;;;;;65.35;31.35;;;;;;;2.20;84.15;102831.91;5023154;28;20121;-61
2022/01/25 09:28:58;;;;;;;66.30;31.75;;;;;;;2.32;83.35;102832.13;5017177;28;20065;-62
2022/01/25 09:31:27;;;;;;;63.45;32.75;;;;;;;2.26;83.45;102829.22;5016770;28;20040;-62
2022/01/25 09:33:55;;;;;;;63.88;31.58;;;;;;;2.27;83.49;102830.03;5029744;28;20397;-61
2022/01/25 09:36:24;;;;;;;68.40;31.60;;;;;;;2.34;83.38;102840.94;5023700;28;20045;-62
2022/01/25 09:38:55;;;;;;;62.35;30.40;;;;;;;2.59;82.55;102844.69;5049864;28;20061;-62
2022/01/25 09:41:23;;;;;;;63.97;31.65;;;;;;;2.20;83.32;102848.22;5033886;28;20058;-61
2022/01/25 09:43:51;;;;;;;67.38;31.17;;;;;;;2.30;83.42;102851.38;5032172;28;20060;-62
2022/01/25 09:46:18;;;;;;;72.68;34.00;;;;;;;2.10;83.67;102845.06;5034078;28;20069;-61
2022/01/25 09:48:46;;;;;;;63.70;31.77;;;;;;;2.39;83.80;102849.31;5024196;28;20440;-62
2022/01/25 09:51:17;;;;;;;70.63;34.47;;;;;;;2.41;83.01;102848.03;5034083;28;20045;-63
2022/01/25 09:53:45;;;;;;;66.30;32.03;;;;;;;2.34;83.61;102854.53;5032281;28;20412;-62
2022/01/25 09:56:12;;;;;;;68.85;33.53;;;;;;;2.46;83.30;102844.72;5027267;28;20049;-61
2022/01/25 09:58:42;;;;;;;69.28;32.80;;;;;;;2.49;82.73;102857.88;5034436;28;20518;-62
2022/01/25 10:01:09;;;;;;;68.97;33.63;;;;;;;2.11;84.09;102855.72;5034176;28;20041;-64
2022/01/25 10:03:39;;;;;;;73.80;34.33;;;;;;;2.31;84.34;102858.47;5038733;28;20054;-62
2022/01/25 10:06:15;;;;;;;68.68;33.60;;;;;;;2.56;83.99;102861.44;5039539;28;20050;-62
2022/01/25 10:08:44;;;;;;;79.45;36.67;;;;;;;2.41;83.56;102852.66;5036664;28;20050;-62
2022/01/25 10:11:14;;;;;;;73.15;36.13;;;;;;;2.41;83.91;102856.19;5038170;28;20056;-62
2022/01/25 10:13:44;;;;;;;69.80;35.05;;;;;;;2.19;84.48;102855.53;5020308;28;20045;-62
2022/01/25 10:16:11;;;;;;;;;;;;;;;2.48;83.78;102850.75;5033172;28;20412;-62
2022/01/25 10:18:46;;;;;;;71.47;34.45;;;;;;;2.40;83.71;102859.13;5036588;28;19928;-63
2022/01/25 10:21:20;;;;;;;74.57;34.08;;;;;;;2.62;83.55;102866.88;5037940;28;20045;-63
2022/01/25 10:24:24;;;;;;;72.03;35.20;;;;;;;2.53;83.16;102851.81;5029297;28;20049;-62
2022/01/25 10:26:57;;;;;;;73.20;34.67;;;;;;;2.46;83.66;102867.28;5041024;28;20060;-60
2022/01/25 10:29:30;;;;;;;73.35;34.53;;;;;;;2.58;83.43;102865.59;5055255;28;20041;-62
2022/01/25 10:32:00;;;;;;;87.38;37.03;;;;;;;2.36;84.57;102866.84;5048459;28;20508;-62
2022/01/25 10:34:30;;;;;;;73.20;36.13;;;;;;;2.46;84.50;102863.75;5020768;28;20057;-63
2022/01/25 10:36:59;;;;;;;70.28;35.50;;;;;;;2.54;83.50;102858.94;5025979;28;20054;-62
2022/01/25 10:39:31;;;;;;;72.35;36.30;;;;;;;2.37;84.00;102865.81;5052027;28;20053;-62
2022/01/25 10:42:03;;;;;;;74.25;36.33;;;;;;;2.41;84.40;102864.34;5037125;28;20791;-63
2022/01/25 10:44:55;;;;;;;67.70;34.78;;;;;;;2.41;84.47;102858.91;5037640;28;20049;-61
2022/01/25 10:47:51;;;;;;;68.78;34.53;;;;;;;2.69;82.77;102861.44;5052387;28;20065;-62
2022/01/25 10:50:23;;;;;;;67.57;34.63;;;;;;;2.74;82.77;102864.34;5029860;28;20076;-63
2022/01/25 10:53:10;;;;;;;72.15;35.45;;;;;;;2.57;82.52;102869.38;5017915;28;20053;-63
2022/01/25 10:55:39;;;;;;;71.32;35.85;;;;;;;2.60;83.08;102866.25;5036207;28;20049;-62
2022/01/25 10:58:07;;;;;;;74.70;37.30;;;;;;;2.63;83.13;102867.72;5024029;28;20519;-61
2022/01/25 11:00:42;;;;;;;69.10;35.05;;;;;;;3.02;82.16;102856.81;5021473;28;20423;-62
2022/01/25 11:03:10;;;;;;;70.63;35.15;;;;;;;2.68;82.34;102863.34;5026421;28;20058;-63
2022/01/25 11:05:40;;;;;;;70.18;35.75;;;;;;;3.01;81.84;102850.53;5026652;28;20048;-61
2022/01/25 11:08:16;;;;;;;73.82;34.92;;;;;;;3.08;82.20;102853.25;5022839;28;20062;-60
2022/01/25 11:10:59;;;;;;;82.53;36.20;;;;;;;3.09;81.71;102847.59;5021229;28;20072;-62
2022/01/25 11:15:58;;;;;;;71.82;36.67;;;;;;;2.98;81.63;102852.84;5036088;28;20046;-63
2022/01/25 11:18:25;;;;;;;71.88;35.00;;;;;;;3.13;81.66;102848.84;5036922;28;20067;-62
2022/01/25 11:20:57;;;;;;;69.47;35.05;;;;;;;3.24;81.17;102844.63;5003472;28;20457;-63
2022/01/25 11:23:24;;;;;;;74.10;36.08;;;;;;;3.28;80.98;102849.44;5017034;28;20045;-62
2022/01/25 11:25:53;;;;;;;72.97;36.47;;;;;;;3.15;80.32;102845.91;5017105;28;20663;-63
2022/01/25 11:28:21;;;;;;;68.65;35.13;;;;;;;3.07;80.92;102849.69;5051388;28;20049;-62
2022/01/25 11:30:50;;;;;;;72.30;35.45;;;;;;;3.23;81.09;102848.41;5000340;28;20875;-64
2022/01/25 11:33:19;;;;;;;78.60;37.83;;;;;;;2.92;80.73;102840.06;5016993;28;20049;-62
2022/01/25 11:35:48;;;;;;;72.32;35.33;;;;;;;3.08;81.33;102848.66;5037510;28;20056;-62
2022/01/25 11:38:30;;;;;;;69.72;37.03;;;;;;;3.21;80.78;102847.75;5043151;28;20057;-63
2022/01/25 11:40:58;;;;;;;70.75;35.42;;;;;;;2.97;82.01;102849.28;5026876;28;20058;-61
2022/01/25 11:43:25;;;;;;;76.38;38.00;;;;;;;3.04;81.78;102852.84;5000731;28;20054;-62
2022/01/25 11:46:02;;;;;;;77.93;36.97;;;;;;;2.90;81.84;102847.59;5042861;28;20064;-59
2022/01/25 11:48:43;;;;;;;73.55;36.28;;;;;;;3.28;83.14;102846.72;5053456;28;20057;-62
2022/01/25 11:51:18;;;;;;;82.95;37.35;;;;;;;3.20;82.21;102846.09;5035835;28;20037;-65
2022/01/25 11:53:49;;;;;;;80.32;38.78;;;;;;;3.59;81.36;102846.00;5036272;28;20045;-63
2022/01/25 11:56:17;;;;;;;88.93;42.38;;;;;;;3.42;80.97;102851.06;5032921;28;20064;-63
2022/01/25 11:58:55;;;;;;;82.80;43.17;;;;;;;3.42;81.25;102844.78;5025742;28;20065;-63
2022/01/25 12:01:24;;;;;;;86.40;42.78;;;;;;;3.58;80.61;102841.59;5037628;28;20062;-64
2022/01/25 12:03:56;;;;;;;76.20;38.20;;;;;;;3.79;80.50;102833.09;5017866;28;20061;-63
2022/01/25 12:06:28;;;;;;;76.68;37.60;;;;;;;4.07;79.89;102836.31;5047218;28;20410;-65
2022/01/25 12:11:44;;;;;;;70.72;36.78;;;;;;;3.70;79.65;102830.84;5054620;28;20059;-64
2022/01/25 12:14:28;;;;;;;77.30;37.47;;;;;;;3.58;79.91;102835.28;5040125;28;20045;-66
2022/01/25 12:17:10;;;;;;;69.00;34.25;;;;;;;3.87;79.27;102829.31;5035659;28;20527;-67
2022/01/25 12:19:54;;;;;;;76.13;36.88;;;;;;;3.66;80.04;102829.63;5036101;28;20053;-65
2022/01/25 12:27:45;;;;;;;73.55;36.88;;;;;;;4.01;78.56;102809.91;5031277;28;20054;-63
2022/01/25 12:30:34;;;;;;;75.40;36.63;;;;;;;3.88;78.41;102818.19;5033994;28;20049;-65
2022/01/25 12:33:02;;;;;;;73.67;36.17;;;;;;;4.04;77.95;102812.22;5041218;28;20076;-65
2022/01/25 12:35:50;;;;;;;74.20;36.20;;;;;;;4.01;78.49;102809.91;5031339;28;20064;-65
2022/01/25 12:38:27;;;;;;;68.80;33.95;;;;;;;4.09;78.53;102806.09;5035079;28;20060;-67
2022/01/25 12:40:55;;;;;;;69.70;34.60;;;;;;;4.15;78.16;102808.78;5015587;28;20059;-65
2022/01/25 12:43:27;;;;;;;71.55;36.03;;;;;;;4.07;77.84;102797.28;5016031;28;20058;-66
2022/01/25 12:46:03;;;;;;;67.70;34.70;;;;;;;4.10;78.13;102807.75;5040952;28;20045;-64
2022/01/25 12:48:37;;;;;;;67.57;34.22;;;;;;;4.31;78.43;102802.78;5033437;28;20049;-65
2022/01/25 12:51:10;;;;;;;72.55;35.72;;;;;;;4.17;77.90;102801.22;5041713;28;20060;-62
2022/01/25 12:53:41;;;;;;;69.82;35.55;;;;;;;4.22;77.95;102792.38;5023043;28;20049;-62
2022/01/25 12:56:16;;;;;;;67.15;34.35;;;;;;;3.99;78.29;102789.38;5016066;28;20053;-63
2022/01/25 12:58:45;;;;;;;71.03;34.40;;;;;;;4.33;77.96;102795.22;5025936;28;20057;-63
2022/01/25 13:01:15;;;;;;;66.72;34.75;;;;;;;4.14;78.04;102796.22;5014782;28;20061;-63
2022/01/25 13:03:48;;;;;;;72.38;36.97;;;;;;;4.08;78.91;102791.63;5032099;28;20053;-64
2022/01/25 13:06:17;;;;;;;90.93;45.70;;;;;;;4.46;78.81;102788.84;5020732;28;20050;-67
2022/01/25 13:08:57;;;;;;;65.95;34.38;;;;;;;4.48;77.57;102790.25;5023845;28;20052;-64
2022/01/25 13:11:27;;;;;;;65.28;33.97;;;;;;;4.58;77.11;102790.59;5018450;28;20149;-63
2022/01/25 13:16:43;;;;;;;63.97;33.60;;;;;;;4.42;76.71;102779.41;5029032;28;19936;-63
2022/01/25 13:19:23;;;;;;;73.35;33.85;;;;;;;4.60;76.78;102779.47;5023079;28;20060;-64
2022/01/25 13:22:03;;;;;;;70.45;34.28;;;;;;;4.40;76.87;102776.91;5017770;28;20038;-65
2022/01/25 13:24:45;;;;;;;61.53;33.22;;;;;;;4.30;77.60;102771.13;5019387;28;20065;-63
2022/01/25 13:27:15;;;;;;;70.70;33.45;;;;;;;4.54;77.11;102769.44;5033826;28;20053;-63
2022/01/25 13:32:42;;;;;;;65.38;32.97;;;;;;;4.68;76.51;102768.25;5034324;28;20476;-64
2022/01/25 13:38:08;;;;;;;69.40;35.15;;;;;;;4.26;77.72;102779.94;5020700;28;20061;-64
2022/01/25 13:40:47;;;;;;;64.93;33.22;;;;;;;4.18;78.06;102772.91;5024438;28;20068;-64
2022/01/25 13:45:58;;;;;;;63.72;32.88;;;;;;;4.22;77.99;102778.75;5033253;28;20049;-63
2022/01/25 13:48:27;;;;;;;69.13;33.38;;;;;;;4.21;77.93;102777.91;5010006;28;20057;-63
2022/01/25 13:51:04;;;;;;;69.28;34.80;;;;;;;4.41;77.15;102781.28;5014674;28;20050;-64
2022/01/25 13:53:31;;;;;;;70.20;35.40;;;;;;;4.30;77.82;102781.19;5033804;28;20400;-63
2022/01/25 13:56:00;;;;;;;72.95;36.22;;;;;;;4.13;77.88;102778.16;5032825;28;20054;-63
2022/01/25 13:58:32;;;;;;;68.80;34.53;;;;;;;4.19;78.16;102776.44;5015793;28;20053;-63
2022/01/25 14:01:04;;;;;;;69.45;35.22;;;;;;;4.56;78.25;102776.34;5014432;28;20049;-64
2022/01/25 14:03:35;;;;;;;68.43;34.53;;;;;;;4.77;76.68;102777.84;5017281;28;20404;-64